Time;durP1;ratioP1;P1;durP2;ratioP2;P2;SDS_P1;SDS_P2;PMS_P1;PMS_P2;Temp;Humidity;BMP_temperature;BMP_pressure;BME280_temperature;BME280_humidity;BME280_pressure;Samples;Min_cycle;Max_cycle;Signal;HPM_P1;HPM_P2
2022/11/05 00:19:05;;;;;;;3.40;2.60;;;;;;;;;;12602616;23;20357;-91
2022/11/05 00:29:23;;;;;;;3.28;2.20;;;;;;;;;;12572155;23;20383;-91
2022/11/05 00:34:28;;;;;;;2.88;2.15;;;;;;;;;;12596279;23;20395;-92
2022/11/05 00:39:30;;;;;;;2.83;1.90;;;;;;;;;;12597958;23;20904;-90
2022/11/05 00:49:53;;;;;;;2.55;1.80;;;;;;;;;;12630940;23;20372;-91
2022/11/05 00:54:55;;;;;;;2.33;1.58;;;;;;;;;;12651650;23;20451;-93
2022/11/05 00:59:57;;;;;;;2.53;1.70;;;;;;;;;;12653809;23;20441;-92
2022/11/05 01:05:00;;;;;;;2.30;1.90;;;;;;;;;;12755857;23;20365;-91
2022/11/05 01:10:21;;;;;;;2.10;1.87;;;;;;;;;;12748946;23;20389;-92
2022/11/05 01:15:23;;;;;;;2.90;1.80;;;;;;;;;;12737123;23;20388;-92
2022/11/05 01:20:34;;;;;;;2.38;2.00;;;;;;;;;;12726179;23;20377;-92
2022/11/05 01:25:36;;;;;;;1.95;1.60;;;;;;;;;;12731792;23;20456;-89
2022/11/05 01:30:39;;;;;;;4.40;1.67;;;;;;;;;;12733089;23;20372;-88
2022/11/05 01:35:42;;;;;;;1.90;1.50;;;;;;;;;;12731487;23;20396;-90
2022/11/05 01:40:44;;;;;;;5.03;1.70;;;;;;;;;;12728738;23;20449;-91
2022/11/05 01:45:50;;;;;;;2.13;1.40;;;;;;;;;;12739878;23;20383;-93
2022/11/05 01:50:59;;;;;;;2.22;1.55;;;;;;;;;;12789132;23;20725;-91
2022/11/05 01:56:04;;;;;;;1.98;1.60;;;;;;;;;;12787326;23;20389;-92
2022/11/05 02:01:06;;;;;;;1.67;1.40;;;;;;;;;;12789012;23;20375;-91
2022/11/05 02:06:11;;;;;;;2.08;1.30;;;;;;;;;;12787030;23;20375;-93
2022/11/05 02:11:14;;;;;;;1.38;1.20;;;;;;;;;;12787030;23;20372;-91
2022/11/05 02:16:27;;;;;;;3.60;1.55;;;;;;;;;;12787509;23;20390;-91
2022/11/05 02:22:08;;;;;;;2.47;1.40;;;;;;;;;;12787116;23;20379;-91
2022/11/05 02:27:18;;;;;;;1.95;1.20;;;;;;;;;;12788302;23;20465;-91
2022/11/05 02:32:34;;;;;;;2.00;1.20;;;;;;;;;;12786859;23;20371;-90
2022/11/05 02:37:40;;;;;;;2.20;1.40;;;;;;;;;;12788811;23;20383;-92
2022/11/05 02:42:45;;;;;;;2.08;1.40;;;;;;;;;;12787123;23;20454;-90
2022/11/05 02:47:56;;;;;;;2.63;1.42;;;;;;;;;;12786537;23;20692;-91
2022/11/05 02:53:03;;;;;;;2.10;1.50;;;;;;;;;;12786828;23;20410;-90
2022/11/05 02:58:05;;;;;;;2.40;1.50;;;;;;;;;;12785930;23;20383;-92
2022/11/05 03:03:15;;;;;;;2.03;1.35;;;;;;;;;;12786363;23;20766;-91
2022/11/05 03:08:26;;;;;;;2.63;1.58;;;;;;;;;;12787268;23;20371;-91
2022/11/05 03:13:37;;;;;;;2.17;1.30;;;;;;;;;;12786219;23;20462;-92
2022/11/05 03:18:47;;;;;;;1.48;1.20;;;;;;;;;;12784994;23;20412;-89
2022/11/05 03:23:54;;;;;;;1.43;1.30;;;;;;;;;;12785487;23;20877;-91
2022/11/05 03:29:00;;;;;;;2.45;1.23;;;;;;;;;;12785963;23;20501;-90
2022/11/05 03:34:05;;;;;;;1.73;1.27;;;;;;;;;;12785329;23;20836;-91
2022/11/05 03:39:12;;;;;;;1.35;1.15;;;;;;;;;;12787304;23;20629;-90
2022/11/05 03:44:18;;;;;;;1.73;1.20;;;;;;;;;;12786712;23;20438;-91
2022/11/05 03:49:27;;;;;;;1.45;1.00;;;;;;;;;;12784613;23;20379;-90
2022/11/05 03:54:29;;;;;;;2.08;1.00;;;;;;;;;;12786045;23;20668;-89
2022/11/05 03:59:38;;;;;;;2.38;1.00;;;;;;;;;;12809306;23;20378;-91
2022/11/05 04:04:42;;;;;;;2.23;1.03;;;;;;;;;;12841212;23;20453;-90
2022/11/05 04:15:03;;;;;;;2.70;1.60;;;;;;;;;;12842125;23;20372;-91
2022/11/05 04:25:27;;;;;;;2.00;0.80;;;;;;;;;;12792752;23;20435;-90
2022/11/05 04:30:29;;;;;;;2.40;1.20;;;;;;;;;;12789715;23;20945;-91
2022/11/05 04:35:36;;;;;;;1.80;0.90;;;;;;;;;;12788754;23;20785;-89
2022/11/05 04:40:38;;;;;;;3.55;1.00;;;;;;;;;;12784791;23;20375;-91
2022/11/05 04:45:41;;;;;;;1.60;0.70;;;;;;;;;;12785049;23;20470;-91
2022/11/05 04:50:45;;;;;;;1.10;0.70;;;;;;;;;;12785914;23;20406;-90
2022/11/05 04:55:46;;;;;;;0.82;0.73;;;;;;;;;;12783703;23;20383;-90
2022/11/05 05:00:49;;;;;;;2.20;0.90;;;;;;;;;;12784032;23;20367;-90
2022/11/05 05:05:53;;;;;;;0.70;0.70;;;;;;;;;;12783588;23;20380;-89
2022/11/05 05:10:55;;;;;;;0.90;0.70;;;;;;;;;;12783326;23;20871;-89
2022/11/05 05:15:57;;;;;;;5.30;0.80;;;;;;;;;;12789999;23;20407;-90
2022/11/05 05:26:20;;;;;;;1.45;0.77;;;;;;;;;;12785434;23;20388;-91
2022/11/05 05:31:23;;;;;;;1.60;0.88;;;;;;;;;;12784014;23;20379;-91
2022/11/05 05:36:27;;;;;;;2.17;1.40;;;;;;;;;;12783410;23;20391;-88
2022/11/05 05:41:29;;;;;;;0.88;0.77;;;;;;;;;;12785165;23;20453;-90
2022/11/05 05:46:31;;;;;;;2.50;1.13;;;;;;;;;;12788491;23;20717;-90
2022/11/05 05:51:35;;;;;;;1.80;1.25;;;;;;;;;;12788709;23;20486;-89
2022/11/05 05:56:37;;;;;;;1.90;1.40;;;;;;;;;;12788564;23;20653;-91
2022/11/05 06:01:39;;;;;;;1.92;1.33;;;;;;;;;;12789692;23;20394;-90
2022/11/05 06:06:45;;;;;;;3.38;1.70;;;;;;;;;;12788920;23;20375;-86
2022/11/05 06:11:48;;;;;;;1.60;1.43;;;;;;;;;;12788254;23;20459;-89
2022/11/05 06:16:50;;;;;;;1.70;1.42;;;;;;;;;;12785831;23;20384;-89
2022/11/05 06:21:53;;;;;;;2.37;1.43;;;;;;;;;;12788089;23;20475;-91
2022/11/05 06:26:55;;;;;;;3.13;1.60;;;;;;;;;;12785933;23;20368;-92
2022/11/05 06:31:57;;;;;;;2.50;1.67;;;;;;;;;;12784684;23;20814;-90
2022/11/05 06:37:00;;;;;;;2.58;1.77;;;;;;;;;;12784862;23;20391;-90
2022/11/05 06:42:02;;;;;;;3.60;2.10;;;;;;;;;;12786074;23;20801;-91
2022/11/05 06:47:04;;;;;;;3.28;2.03;;;;;;;;;;12785185;23;20426;-92
2022/11/05 06:52:07;;;;;;;2.95;1.90;;;;;;;;;;12785813;23;20430;-92
2022/11/05 06:57:10;;;;;;;3.15;1.83;;;;;;;;;;12790829;23;20384;-92
2022/11/05 07:02:14;;;;;;;4.63;2.70;;;;;;;;;;12786610;23;20733;-92
2022/11/05 07:07:17;;;;;;;3.90;1.92;;;;;;;;;;12786890;23;20553;-91
2022/11/05 07:12:19;;;;;;;4.40;2.70;;;;;;;;;;12787016;23;20414;-93
2022/11/05 07:17:22;;;;;;;4.82;2.50;;;;;;;;;;12786494;23;20859;-91
2022/11/05 07:22:25;;;;;;;4.23;2.57;;;;;;;;;;12787064;23;20406;-92
2022/11/05 07:27:27;;;;;;;3.70;2.38;;;;;;;;;;12785992;23;20371;-91
2022/11/05 07:32:29;;;;;;;4.03;2.27;;;;;;;;;;12785679;23;20375;-91
2022/11/05 07:37:33;;;;;;;4.30;2.57;;;;;;;;;;12786751;23;20449;-94
2022/11/05 07:42:35;;;;;;;4.72;2.58;;;;;;;;;;12786044;23;20379;-91
2022/11/05 07:47:37;;;;;;;3.67;2.55;;;;;;;;;;12785713;23;20375;-89
2022/11/05 07:52:41;;;;;;;6.95;2.65;;;;;;;;;;12785844;23;20371;-93
2022/11/05 07:57:43;;;;;;;6.53;3.85;;;;;;;;;;12785496;23;20436;-92
2022/11/05 08:02:55;;;;;;;6.72;4.30;;;;;;;;;;12786001;23;20378;-94
2022/11/05 08:07:59;;;;;;;5.85;4.10;;;;;;;;;;12786122;23;20407;-94
2022/11/05 08:13:01;;;;;;;5.03;3.40;;;;;;;;;;12785242;23;20376;-89
2022/11/05 08:18:05;;;;;;;5.10;3.57;;;;;;;;;;12787352;23;20410;-93
2022/11/05 08:23:09;;;;;;;4.93;3.00;;;;;;;;;;12784198;23;20811;-83
2022/11/05 08:28:12;;;;;;;4.13;2.60;;;;;;;;;;12789900;23;20847;-92
2022/11/05 08:33:14;;;;;;;4.43;2.60;;;;;;;;;;12803283;23;20700;-92
2022/11/05 08:38:24;;;;;;;2.38;1.77;;;;;;;;;;12830788;23;20410;-92
2022/11/05 08:43:26;;;;;;;3.03;1.60;;;;;;;;;;12790122;23;20379;-92
2022/11/05 08:48:29;;;;;;;1.90;1.47;;;;;;;;;;12791404;23;20440;-96
2022/11/05 08:53:54;;;;;;;2.15;1.50;;;;;;;;;;12792513;23;20386;-93
2022/11/05 08:59:06;;;;;;;2.37;1.50;;;;;;;;;;12781655;23;20430;-95
2022/11/05 09:04:26;;;;;;;3.97;1.35;;;;;;;;;;12788293;23;20379;-95
2022/11/05 09:10:01;;;;;;;1.20;1.10;;;;;;;;;;12788224;23;20383;-94
2022/11/05 09:20:59;;;;;;;;;;;;;;;;;;;;;
2022/11/05 09:26:20;;;;;;;2.30;0.80;;;;;;;;;;12677547;23;20367;-95
2022/11/05 09:49:37;;;;;;;;;;;;;;;;;;;;;
2022/11/05 10:18:46;;;;;;;0.77;0.40;;;;;;;;;;12309000;23;20416;-95
2022/11/05 10:24:51;;;;;;;;;;;;;;;;;;;;;
2022/11/05 13:42:08;;;;;;;0.30;0.30;;;;;;;;;;12843614;23;20424;-94
2022/11/05 13:47:24;;;;;;;1.90;0.33;;;;;;;;;;12839413;23;20905;-86
2022/11/05 13:52:52;;;;;;;1.00;0.40;;;;;;;;;;12839424;23;20381;-87
2022/11/05 14:34:48;;;;;;;0.57;0.40;;;;;;;;;;12824946;23;20429;-84
2022/11/05 14:39:50;;;;;;;1.40;0.30;;;;;;;;;;12839596;23;20422;-84
2022/11/05 14:44:59;;;;;;;1.20;0.40;;;;;;;;;;12838401;23;20719;-83
2022/11/05 16:33:26;;;;;;;4.10;2.30;;;;;;;;;;12127779;24;20476;-93
2022/11/05 16:55:55;;;;;;;5.80;2.33;;;;;;;;;;12176620;23;20931;-81
2022/11/05 17:06:57;;;;;;;3.22;2.30;;;;;;;;;;12603083;23;20429;-93
2022/11/05 17:12:12;;;;;;;8.77;2.40;;;;;;;;;;12806168;23;20434;-94
2022/11/05 17:39:46;;;;;;;7.50;3.80;;;;;;;;;;12509810;23;20398;-93
2022/11/05 18:33:58;;;;;;;18.90;10.57;;;;;;;;;;12023617;24;20401;-93
2022/11/05 18:39:34;;;;;;;17.35;10.30;;;;;;;;;;12011690;24;20403;-92
2022/11/05 18:44:52;;;;;;;14.98;10.35;;;;;;;;;;12197874;23;20418;-92
2022/11/05 19:01:51;;;;;;;;;;;;;;;;;;;;;
2022/11/05 19:18:28;;;;;;;17.27;11.27;;;;;;;;;;12601073;23;20421;-92
2022/11/05 19:24:09;;;;;;;15.67;11.13;;;;;;;;;;12664802;23;20486;-93
2022/11/05 19:29:19;;;;;;;18.90;11.77;;;;;;;;;;12664829;23;20391;-93
2022/11/05 19:40:56;;;;;;;15.10;10.43;;;;;;;;;;12478499;23;20400;-92
2022/11/05 19:46:54;;;;;;;17.60;9.90;;;;;;;;;;12661542;23;20482;-91
2022/11/05 19:52:01;;;;;;;15.30;9.87;;;;;;;;;;12601246;23;20375;-91
2022/11/05 19:57:27;;;;;;;14.13;9.93;;;;;;;;;;12662090;23;20379;-91
2022/11/05 20:02:49;;;;;;;14.85;9.93;;;;;;;;;;12663515;23;20375;-90
2022/11/05 20:08:12;;;;;;;14.27;9.57;;;;;;;;;;12662335;23;20438;-92
2022/11/05 20:14:05;;;;;;;;;;;;;;;;;;;;;
2022/11/05 20:24:52;;;;;;;16.88;12.02;;;;;;;;;;12658098;23;20450;-90
2022/11/05 20:30:04;;;;;;;17.05;10.70;;;;;;;;;;12658671;23;20371;-92
2022/11/05 20:35:10;;;;;;;16.38;11.15;;;;;;;;;;12661054;23;20461;-92
2022/11/05 20:40:19;;;;;;;17.43;10.90;;;;;;;;;;12659922;23;20391;-91
2022/11/05 20:45:38;;;;;;;;;;;;;;;;;;;;;
2022/11/05 20:50:45;;;;;;;14.87;8.90;;;;;;;;;;12659331;23;20367;-89
2022/11/05 20:55:51;;;;;;;14.00;9.35;;;;;;;;;;12659441;23;20466;-91
2022/11/05 21:00:59;;;;;;;18.37;11.83;;;;;;;;;;12660058;23;20391;-90
2022/11/05 21:12:08;;;;;;;14.57;10.07;;;;;;;;;;12662765;23;20947;-91
2022/11/05 21:17:11;;;;;;;14.43;10.43;;;;;;;;;;12666938;23;20446;-88
2022/11/05 21:22:35;;;;;;;13.43;9.68;;;;;;;;;;12669816;23;20433;-92
2022/11/05 21:27:38;;;;;;;15.93;9.50;;;;;;;;;;12666298;23;20375;-89
2022/11/05 21:32:42;;;;;;;14.33;10.10;;;;;;;;;;12691431;23;20373;-89
2022/11/05 21:37:48;;;;;;;14.60;9.85;;;;;;;;;;12690856;23;20391;-88
2022/11/05 21:43:03;;;;;;;;;;;;;;;;;;;;;
2022/11/05 21:48:13;;;;;;;17.95;11.43;;;;;;;;;;12667091;23;21112;-91
2022/11/05 22:04:04;;;;;;;15.40;10.93;;;;;;;;;;12662714;23;20375;-91
2022/11/05 22:09:06;;;;;;;18.23;12.63;;;;;;;;;;12662925;23;20427;-91
2022/11/05 22:14:08;;;;;;;17.38;12.60;;;;;;;;;;12661831;23;20418;-90
2022/11/05 22:19:12;;;;;;;16.93;11.60;;;;;;;;;;12661362;23;20398;-90
2022/11/05 22:24:14;;;;;;;18.77;11.50;;;;;;;;;;12662504;23;20424;-91
2022/11/05 22:29:17;;;;;;;16.80;11.70;;;;;;;;;;12661194;23;20391;-91
2022/11/05 22:34:22;;;;;;;17.02;12.20;;;;;;;;;;12661860;23;20446;-91
2022/11/05 22:39:26;;;;;;;17.48;12.07;;;;;;;;;;12662265;23;20453;-89
2022/11/05 22:44:31;;;;;;;14.25;10.88;;;;;;;;;;12661318;23;20383;-92
2022/11/05 22:49:34;;;;;;;15.65;11.13;;;;;;;;;;12661491;23;20489;-90
2022/11/05 22:54:38;;;;;;;12.65;9.80;;;;;;;;;;12660449;23;20930;-91
2022/11/05 22:59:40;;;;;;;16.77;10.00;;;;;;;;;;12660675;23;20911;-90
2022/11/05 23:04:44;;;;;;;14.47;9.63;;;;;;;;;;12660551;23;20378;-90
2022/11/05 23:24:02;;;;;;;11.98;8.45;;;;;;;;;;12661638;23;20372;-92
2022/11/05 23:25:57;;;;;;;10.20;6.90;;;;;;;;;;12660020;23;20363;-91
2022/11/05 23:52:15;;;;;;;8.10;5.55;;;;;;;;;;12706938;23;20678;-90
2022/11/05 23:57:20;;;;;;;8.47;5.50;;;;;;;;;;12712975;23;20386;-90
